Silver Bergen — LAHO6 — position and weather

sailwx.info

Track history (hours):
 
Tides and Currents Weather Stations Pressure Air Temp Water Temp Dewpoint Dewpoint Depression Visibility Wind Speed Wind Dir Waves Ship Positions

Silver Bergen

Last reported at 2016-Apr-22 06:31 UTC. Time now 2016-Apr-29 13:58 UTC.
Position N 62°07' W 006°44'.

Length 98 m; draft 4.9 m.

Type: Cargo ship. MMSI: 257951000.

Date/timePositionNaut miles runAvg speedWind from/ knotsBaromVisibWave heightAir tempDewpointWater temp
2016-Apr-22 06:31N 62°07' W 006°44'0 0.1
2016-Apr-22 03:17N 62°07' W 006°44'0 0.0
2016-Apr-20 12:32N 62°07' W 006°44'0 0.0
2016-Apr-20 11:32N 62°07' W 006°44'0 0.0
2016-Apr-20 10:29N 62°07' W 006°44'0 0.0
2016-Apr-20 09:32N 62°07' W 006°44'0 0.0
2016-Apr-19 15:23N 62°07' W 006°44'0 0.0
2016-Apr-19 13:32N 62°07' W 006°44'0 0.0
2016-Apr-18 16:29N 62°07' W 006°44'0 0.0
2016-Apr-18 15:32N 62°07' W 006°44'0 0.0
2016-Apr-18 14:29N 62°07' W 006°44'0 0.0
2016-Apr-18 13:32N 62°07' W 006°44'0 0.0
2016-Apr-18 12:32N 62°07' W 006°44'0 0.0
2016-Apr-18 11:26N 62°07' W 006°44'0 0.0
2016-Apr-18 06:17N 62°07' W 006°44'0 0.0
2016-Apr-18 05:23N 62°07' W 006°44'0 0.0
2016-Apr-18 04:11N 62°07' W 006°44'0 0.0
2016-Apr-18 03:29N 62°07' W 006°44'0 0.0
2016-Apr-17 22:29N 62°07' W 006°44'0 0.0
2016-Apr-17 19:14N 62°07' W 006°44'0 0.0
2016-Apr-17 15:17N 62°07' W 006°44'0 0.0
2016-Apr-17 09:17N 62°07' W 006°44'3 3.6
2016-Apr-17 08:33N 62°04' W 006°45'39010.8
2016-Apr-15 20:20N 58°48' E 004°39'911.2
2016-Apr-15 19:33N 58°42' E 004°51'1211.6
2016-Apr-15 18:33N 58°35' E 005°09'1312.0
2016-Apr-15 17:30N 58°27' E 005°28'1313.7
2016-Apr-15 16:33N 58°19' E 005°48'1514.8
2016-Apr-15 15:33N 58°10' E 006°10'1313.5
2016-Apr-15 14:33N 58°02' E 006°30'1413.8
2016-Apr-15 13:34N 57°57' E 006°54'1413.7
2016-Apr-15 12:32N 57°54' E 007°20'9613.4
2016-Apr-15 05:19N 57°51' E 010°21'1012.7
2016-Apr-15 04:33N 57°50' E 010°39'1212.0
2016-Apr-15 03:33N 57°44' E 010°58'1312.9
2016-Apr-15 02:33N 57°35' E 011°15'1312.6
2016-Apr-15 01:33N 57°25' E 011°29'1413.0
2016-Apr-15 00:28N 57°11' E 011°38'6613.3
2016-Apr-14 19:33N 56°12' E 012°29'1414.4
2016-Apr-14 18:34N 55°60' E 012°42'1313.1
2016-Apr-14 17:34N 55°46' E 012°42'1413.7
2016-Apr-14 16:33N 55°33' E 012°43'1413.6
2016-Apr-14 15:33N 55°19' E 012°42'1413.9
2016-Apr-14 14:33N 55°16' E 013°06'1414.4
2016-Apr-14 13:33N 55°15' E 013°31'1514.6
2016-Apr-14 12:33N 55°14' E 013°56'1413.8
2016-Apr-14 11:33N 55°17' E 014°20'1515.0
2016-Apr-14 10:33N 55°28' E 014°37'1414.3
2016-Apr-14 09:33N 55°35' E 014°60'33114.4
2016-Apr-13 10:32N 59°25' E 022°23'2914.6
2016-Apr-13 08:32N 59°37' E 023°16'1514.4
2016-Apr-13 07:27N 59°41' E 023°45'6014.5
2016-Apr-13 03:19N 59°55' E 025°41'1114.5
2016-Apr-13 02:32N 59°57' E 026°03'1414.5
2016-Apr-13 01:33N 60°01' E 026°30'1514.4
2016-Apr-13 00:32N 59°59' E 026°59'2914.0
2016-Apr-12 22:26N 60°11' E 027°53'1314.3
2016-Apr-12 21:33N 60°08' E 028°17'1414.0
2016-Apr-12 20:32N 60°03' E 028°44'2712.8
2016-Apr-12 18:24N 60°00' E 029°38'910.5
2016-Apr-12 17:32N 59°56' E 029°55'9 8.9
2016-Apr-12 16:34N 59°53' E 030°11'1 1.2
2016-Apr-12 15:32N 59°52' E 030°13'0 0.0
2016-Apr-12 14:32N 59°52' E 030°13'0 0.0
2016-Apr-12 13:32N 59°52' E 030°13'0 0.0
2016-Apr-12 12:29N 59°52' E 030°13'0 0.0
2016-Apr-12 11:33N 59°52' E 030°13'0 0.0
2016-Apr-12 10:33N 59°52' E 030°13'0 0.0
2016-Apr-12 09:33N 59°52' E 030°13'0 0.0
2016-Apr-12 08:33N 59°52' E 030°13'0 0.0
2016-Apr-12 07:33N 59°52' E 030°13'0 0.0
2016-Apr-12 06:34N 59°52' E 030°13'  
Track history (hours):
 
Tides and Currents Weather Stations Pressure Air Temp Water Temp Dewpoint Dewpoint Depression Visibility Wind Speed Wind Dir Waves Ship Positions

Silver Bergen

Last reported at 2016-Apr-22 06:31 UTC. Time now 2016-Apr-29 13:58 UTC.
Position N 62°07' W 006°44'.

Length 98 m; draft 4.9 m.

Type: Cargo ship. MMSI: 257951000.

Date/timePositionNaut miles runAvg speedWind from/ knotsBaromVisibWave heightAir tempDewpointWater temp
2016-Apr-22 06:31N 62°07' W 006°44'0 0.1
2016-Apr-22 03:17N 62°07' W 006°44'0 0.0
2016-Apr-20 12:32N 62°07' W 006°44'0 0.0
2016-Apr-20 11:32N 62°07' W 006°44'0 0.0
2016-Apr-20 10:29N 62°07' W 006°44'0 0.0
2016-Apr-20 09:32N 62°07' W 006°44'0 0.0
2016-Apr-19 15:23N 62°07' W 006°44'0 0.0
2016-Apr-19 13:32N 62°07' W 006°44'0 0.0
2016-Apr-18 16:29N 62°07' W 006°44'0 0.0
2016-Apr-18 15:32N 62°07' W 006°44'0 0.0
2016-Apr-18 14:29N 62°07' W 006°44'0 0.0
2016-Apr-18 13:32N 62°07' W 006°44'0 0.0
2016-Apr-18 12:32N 62°07' W 006°44'0 0.0
2016-Apr-18 11:26N 62°07' W 006°44'0 0.0
2016-Apr-18 06:17N 62°07' W 006°44'0 0.0
2016-Apr-18 05:23N 62°07' W 006°44'0 0.0
2016-Apr-18 04:11N 62°07' W 006°44'0 0.0
2016-Apr-18 03:29N 62°07' W 006°44'0 0.0
2016-Apr-17 22:29N 62°07' W 006°44'0 0.0
2016-Apr-17 19:14N 62°07' W 006°44'0 0.0
2016-Apr-17 15:17N 62°07' W 006°44'0 0.0
2016-Apr-17 09:17N 62°07' W 006°44'3 3.6
2016-Apr-17 08:33N 62°04' W 006°45'39010.8
2016-Apr-15 20:20N 58°48' E 004°39'911.2
2016-Apr-15 19:33N 58°42' E 004°51'1211.6
2016-Apr-15 18:33N 58°35' E 005°09'1312.0
2016-Apr-15 17:30N 58°27' E 005°28'1313.7
2016-Apr-15 16:33N 58°19' E 005°48'1514.8
2016-Apr-15 15:33N 58°10' E 006°10'1313.5
2016-Apr-15 14:33N 58°02' E 006°30'1413.8
2016-Apr-15 13:34N 57°57' E 006°54'1413.7
2016-Apr-15 12:32N 57°54' E 007°20'9613.4
2016-Apr-15 05:19N 57°51' E 010°21'1012.7
2016-Apr-15 04:33N 57°50' E 010°39'1212.0
2016-Apr-15 03:33N 57°44' E 010°58'1312.9
2016-Apr-15 02:33N 57°35' E 011°15'1312.6
2016-Apr-15 01:33N 57°25' E 011°29'1413.0
2016-Apr-15 00:28N 57°11' E 011°38'6613.3
2016-Apr-14 19:33N 56°12' E 012°29'1414.4
2016-Apr-14 18:34N 55°60' E 012°42'1313.1
2016-Apr-14 17:34N 55°46' E 012°42'1413.7
2016-Apr-14 16:33N 55°33' E 012°43'1413.6
2016-Apr-14 15:33N 55°19' E 012°42'1413.9
2016-Apr-14 14:33N 55°16' E 013°06'1414.4
2016-Apr-14 13:33N 55°15' E 013°31'1514.6
2016-Apr-14 12:33N 55°14' E 013°56'1413.8
2016-Apr-14 11:33N 55°17' E 014°20'1515.0
2016-Apr-14 10:33N 55°28' E 014°37'1414.3
2016-Apr-14 09:33N 55°35' E 014°60'33114.4
2016-Apr-13 10:32N 59°25' E 022°23'2914.6
2016-Apr-13 08:32N 59°37' E 023°16'1514.4
2016-Apr-13 07:27N 59°41' E 023°45'6014.5
2016-Apr-13 03:19N 59°55' E 025°41'1114.5
2016-Apr-13 02:32N 59°57' E 026°03'1414.5
2016-Apr-13 01:33N 60°01' E 026°30'1514.4
2016-Apr-13 00:32N 59°59' E 026°59'2914.0
2016-Apr-12 22:26N 60°11' E 027°53'1314.3
2016-Apr-12 21:33N 60°08' E 028°17'1414.0
2016-Apr-12 20:32N 60°03' E 028°44'2712.8
2016-Apr-12 18:24N 60°00' E 029°38'910.5
2016-Apr-12 17:32N 59°56' E 029°55'9 8.9
2016-Apr-12 16:34N 59°53' E 030°11'1 1.2
2016-Apr-12 15:32N 59°52' E 030°13'0 0.0
2016-Apr-12 14:32N 59°52' E 030°13'0 0.0
2016-Apr-12 13:32N 59°52' E 030°13'0 0.0
2016-Apr-12 12:29N 59°52' E 030°13'0 0.0
2016-Apr-12 11:33N 59°52' E 030°13'0 0.0
2016-Apr-12 10:33N 59°52' E 030°13'0 0.0
2016-Apr-12 09:33N 59°52' E 030°13'0 0.0
2016-Apr-12 08:33N 59°52' E 030°13'0 0.0
2016-Apr-12 07:33N 59°52' E 030°13'0 0.0
2016-Apr-12 06:34N 59°52' E 030°13'  

Dump ship's entire track history